UKOH/KHE METAR and TAF weather

Enter ICAO airport designator
Station Type Date Time Source
UKOH METAR 2020/07/04 10:00 UTC NOAA

UKOH 041000Z VRB01MPS CAVOK 36/11 Q1010 NOSIG


Station Type Date Time Source
UKOH Decoded METAR 2020/07/04 10:00 UTC NOAA

Station name not available
Jul 04, 2020 - 06:00 AM EDT / 2020.07.04 1000 UTC
Wind: Variable at 2 MPH (2 KT):0
Visibility: greater than 7 mile(s):0
Temperature: 96 F (36 C)
Dew Point: 51 F (11 C)
Relative Humidity: 22%
Pressure (altimeter): 29.83 in. Hg (1010 hPa)
ob: UKOH 041000Z VRB01MPS CAVOK 36/11 Q1010 NOSIG
cycle: 10

Station Type Date Time Source
UKOH TAF UTC NOAA

Error!

Example: see airport list